createdAt,value
2018-04-23T00:02:13.270Z,7.43
2018-04-23T00:04:46.686Z,7.33
2018-04-23T00:07:20.199Z,6.93
2018-04-23T00:09:54.426Z,7.10
2018-04-23T00:12:27.892Z,7.23
2018-04-23T00:15:01.314Z,7.33
2018-04-23T00:17:38.224Z,7.23
2018-04-23T00:20:11.602Z,6.10
2018-04-23T00:22:45.107Z,5.67
2018-04-23T00:25:18.722Z,5.70
2018-04-23T00:27:52.020Z,6.13
2018-04-23T00:30:25.435Z,5.67
2018-04-23T00:32:59.592Z,6.70
2018-04-23T00:35:32.939Z,5.80
2018-04-23T00:38:06.568Z,5.77
2018-04-23T00:40:40.631Z,6.07
2018-04-23T00:43:14.270Z,7.00
2018-04-23T00:45:47.864Z,6.17
2018-04-23T00:48:22.085Z,5.87
2018-04-23T00:50:56.764Z,5.27
2018-04-23T00:53:40.728Z,6.37
2018-04-23T00:56:14.052Z,5.67
2018-04-23T00:58:47.759Z,6.17
2018-04-23T01:01:21.461Z,6.40
2018-04-23T01:03:56.125Z,6.20
2018-04-23T01:06:29.409Z,5.57
2018-04-23T01:09:02.889Z,7.03
2018-04-23T01:11:36.322Z,6.27
2018-04-23T01:14:09.992Z,6.20
2018-04-23T01:16:43.391Z,6.50
2018-04-23T01:20:45.826Z,7.70
2018-04-23T01:23:19.122Z,5.90
2018-04-23T01:25:52.554Z,6.83
2018-04-23T01:28:26.062Z,5.90
2018-04-23T01:30:59.989Z,5.87
2018-04-23T01:33:33.304Z,6.13
2018-04-23T01:36:07.127Z,5.93
2018-04-23T01:38:40.392Z,6.00
2018-04-23T01:41:13.799Z,6.67
2018-04-23T01:43:48.384Z,5.90
2018-04-23T01:46:21.797Z,5.83
2018-04-23T01:48:55.046Z,5.63
2018-04-23T01:51:28.545Z,5.50
2018-04-23T01:54:02.226Z,5.77
2018-04-23T01:56:35.793Z,5.40
2018-04-23T01:59:09.350Z,5.70
2018-04-23T02:01:42.652Z,6.10
2018-04-23T02:04:16.350Z,6.23
2018-04-23T02:06:50.162Z,5.53
2018-04-23T02:09:23.431Z,5.50
2018-04-23T02:11:57.034Z,5.90
2018-04-23T02:14:31.136Z,6.73
2018-04-23T02:17:05.298Z,7.60
2018-04-23T02:19:38.764Z,7.33
2018-04-23T02:22:12.584Z,7.30
2018-04-23T02:24:46.648Z,7.50
2018-04-23T02:27:20.737Z,8.17
2018-04-23T02:29:54.784Z,7.13
2018-04-23T02:32:28.988Z,6.87
2018-04-23T02:35:04.021Z,7.40
2018-04-23T02:37:37.422Z,7.97
2018-04-23T02:40:10.761Z,8.60
2018-04-23T02:42:44.129Z,8.53
2018-04-23T02:45:18.006Z,11.03
2018-04-23T02:47:51.412Z,9.73
2018-04-23T02:50:26.150Z,9.53
2018-04-23T02:52:59.863Z,9.00
2018-04-23T02:55:33.171Z,8.60
2018-04-23T02:58:06.587Z,8.23
2018-04-23T03:00:40.042Z,8.17
2018-04-23T03:03:13.628Z,6.73
2018-04-23T03:05:47.014Z,7.13
2018-04-23T03:08:20.632Z,7.13
2018-04-23T03:10:54.434Z,7.67
2018-04-23T03:13:27.759Z,7.43
2018-04-23T03:16:01.628Z,7.43
2018-04-23T03:18:35.082Z,8.33
2018-04-23T03:21:08.456Z,7.20
2018-04-23T03:23:42.051Z,6.70
2018-04-23T03:26:15.563Z,7.50
2018-04-23T03:28:49.000Z,6.43
2018-04-23T03:31:22.862Z,7.20
2018-04-23T03:33:56.159Z,7.53
2018-04-23T03:36:29.471Z,7.30
2018-04-23T03:39:03.442Z,7.53
2018-04-23T03:41:36.837Z,7.50
2018-04-23T03:44:10.395Z,6.90
2018-04-23T03:46:43.975Z,6.87
2018-04-23T03:49:17.718Z,7.03
2018-04-23T03:51:51.045Z,6.63
2018-04-23T03:54:24.725Z,8.83
2018-04-23T03:56:58.181Z,8.80
2018-04-23T03:59:32.022Z,7.63
2018-04-23T04:02:05.679Z,7.70
2018-04-23T04:04:39.538Z,7.33
2018-04-23T04:07:12.975Z,8.10
2018-04-23T04:09:46.895Z,7.20
2018-04-23T04:12:30.308Z,6.73
2018-04-23T04:15:15.660Z,7.43
2018-04-23T04:18:00.763Z,8.83
2018-04-23T04:20:34.160Z,8.47
2018-04-23T04:23:07.678Z,9.13
2018-04-23T04:25:41.117Z,8.10
2018-04-23T04:28:15.143Z,9.33
2018-04-23T04:30:49.356Z,8.53
2018-04-23T04:33:22.835Z,7.53
2018-04-23T04:35:56.311Z,7.63
2018-04-23T04:38:30.723Z,8.20
2018-04-23T04:41:04.326Z,7.80
2018-04-23T04:43:37.621Z,8.13
2018-04-23T04:46:11.932Z,8.33
2018-04-23T04:48:46.430Z,7.97
2018-04-23T04:51:20.563Z,8.03
2018-04-23T04:53:54.340Z,8.67
2018-04-23T04:56:31.759Z,8.93
2018-04-23T04:59:05.665Z,8.63
2018-04-23T05:01:39.533Z,8.10
2018-04-23T05:04:15.719Z,8.87
2018-04-23T05:06:49.127Z,8.40
2018-04-23T05:09:22.911Z,8.00
2018-04-23T05:11:56.508Z,8.97
2018-04-23T05:14:30.238Z,8.40
2018-04-23T05:17:04.423Z,8.17
2018-04-23T05:19:38.200Z,7.67
2018-04-23T05:22:13.320Z,7.93
2018-04-23T05:24:47.914Z,7.10
2018-04-23T05:27:21.433Z,7.13
2018-04-23T05:29:56.124Z,7.40
2018-04-23T05:32:30.064Z,7.87
2018-04-23T05:35:07.643Z,7.60
2018-04-23T05:37:48.050Z,8.60
2018-04-23T05:40:21.714Z,7.77
2018-04-23T05:42:56.693Z,7.63
2018-04-23T05:45:31.928Z,7.00
2018-04-23T05:48:05.525Z,7.53
2018-04-23T05:50:39.604Z,9.00
2018-04-23T05:53:24.179Z,9.83
2018-04-23T05:55:59.369Z,9.43
2018-04-23T05:58:32.874Z,8.27
2018-04-23T06:01:07.725Z,9.03
2018-04-23T06:03:41.893Z,9.53
2018-04-23T06:06:19.597Z,9.73
2018-04-23T06:08:53.549Z,8.70
2018-04-23T06:11:27.052Z,8.43
2018-04-23T06:14:00.795Z,7.90
2018-04-23T06:16:34.377Z,7.47
2018-04-23T06:19:15.487Z,7.50
2018-04-23T06:21:48.872Z,6.57
2018-04-23T06:24:22.826Z,7.13
2018-04-23T06:26:57.363Z,6.50
2018-04-23T06:29:31.527Z,5.80
2018-04-23T06:32:05.685Z,6.27
2018-04-23T06:34:39.643Z,5.90
2018-04-23T06:37:13.047Z,5.70
2018-04-23T06:39:47.189Z,5.57
2018-04-23T06:42:20.561Z,6.00
2018-04-23T06:44:54.170Z,4.80
2018-04-23T06:47:27.969Z,4.73
2018-04-23T06:50:01.470Z,4.63
2018-04-23T06:52:34.947Z,4.23
2018-04-23T06:55:09.321Z,4.27
2018-04-23T06:57:42.800Z,5.00
2018-04-23T07:00:16.555Z,4.30
2018-04-23T07:03:21.018Z,4.53
2018-04-23T07:05:55.147Z,4.20
2018-04-23T07:08:31.168Z,4.87
2018-04-23T07:11:16.282Z,4.73
2018-04-23T07:16:13.942Z,4.70
2018-04-23T07:18:47.739Z,4.40
2018-04-23T07:21:21.685Z,4.47
2018-04-23T07:23:56.471Z,5.07
2018-04-23T07:26:31.604Z,4.20
2018-04-23T07:29:05.414Z,4.07
2018-04-23T07:31:39.554Z,4.40
2018-04-23T07:34:14.960Z,4.40
2018-04-23T07:36:49.219Z,4.70
2018-04-23T07:39:23.828Z,4.30
2018-04-23T07:41:58.938Z,5.00
2018-04-23T07:44:33.708Z,4.30
2018-04-23T07:47:07.731Z,4.87
2018-04-23T07:49:41.211Z,4.43
2018-04-23T07:52:15.688Z,4.50
2018-04-23T07:54:49.698Z,4.90
2018-04-23T07:57:23.190Z,5.20
2018-04-23T07:59:57.052Z,5.27
2018-04-23T08:02:32.184Z,4.43
2018-04-23T08:05:05.970Z,4.20
2018-04-23T08:07:39.682Z,4.50
2018-04-23T08:10:14.144Z,4.20
2018-04-23T08:12:48.480Z,4.47
2018-04-23T08:15:22.476Z,4.70
2018-04-23T08:17:56.868Z,5.27
2018-04-23T08:20:30.979Z,4.07
2018-04-23T08:23:05.087Z,4.33
2018-04-23T08:25:38.863Z,4.93
2018-04-23T08:28:12.145Z,4.37
2018-04-23T08:30:45.853Z,3.73
2018-04-23T08:33:20.631Z,4.37
2018-04-23T08:35:54.324Z,4.50
2018-04-23T08:38:28.984Z,4.13
2018-04-23T08:41:02.760Z,4.60
2018-04-23T08:43:37.797Z,4.17
2018-04-23T08:46:12.479Z,4.63
2018-04-23T08:48:46.432Z,4.53
2018-04-23T08:51:20.687Z,4.13
2018-04-23T08:53:54.660Z,4.00
2018-04-23T08:56:28.136Z,4.57
2018-04-23T08:59:03.187Z,3.90
2018-04-23T09:01:36.705Z,4.70
2018-04-23T09:04:10.556Z,4.10
2018-04-23T09:06:44.484Z,3.57
2018-04-23T09:09:18.424Z,4.10
2018-04-23T09:11:52.509Z,3.53
2018-04-23T09:14:26.352Z,3.80
2018-04-23T09:16:59.730Z,3.67
2018-04-23T09:19:33.464Z,4.67
2018-04-23T09:22:07.355Z,4.40
2018-04-23T09:24:41.988Z,4.33
2018-04-23T09:27:18.470Z,4.10
2018-04-23T09:29:51.897Z,3.77
2018-04-23T09:32:26.880Z,4.10
2018-04-23T09:35:00.274Z,4.30
2018-04-23T09:37:35.270Z,4.63
2018-04-23T09:40:09.695Z,4.03
2018-04-23T09:42:44.242Z,4.03
2018-04-23T09:45:17.963Z,3.87
2018-04-23T09:47:51.803Z,4.10
2018-04-23T09:50:25.502Z,3.87
2018-04-23T09:52:58.930Z,4.20
2018-04-23T09:55:32.506Z,3.90
2018-04-23T09:58:07.087Z,4.20
2018-04-23T10:00:44.193Z,3.77
2018-04-23T10:03:18.046Z,4.20
2018-04-23T10:05:53.379Z,4.03
2018-04-23T10:08:27.325Z,4.53
2018-04-23T10:11:01.321Z,4.13
2018-04-23T10:13:34.829Z,4.13
2018-04-23T10:16:10.526Z,4.00
2018-04-23T10:18:43.938Z,4.00
2018-04-23T10:21:18.247Z,3.70
2018-04-23T10:23:53.993Z,4.40
2018-04-23T10:26:27.382Z,4.23
2018-04-23T10:29:01.016Z,4.23
2018-04-23T10:31:37.872Z,4.07
2018-04-23T10:34:11.979Z,3.90
2018-04-23T10:36:45.855Z,4.13
2018-04-23T10:39:19.335Z,4.60
2018-04-23T10:41:53.305Z,4.13
2018-04-23T10:44:27.069Z,4.43
2018-04-23T10:47:00.598Z,4.87
2018-04-23T10:49:35.017Z,3.87
2018-04-23T10:52:08.484Z,4.07
2018-04-23T10:54:41.859Z,4.07
2018-04-23T10:57:16.657Z,4.10
2018-04-23T10:59:50.606Z,3.60
2018-04-23T11:02:24.181Z,3.37
2018-04-23T11:04:58.682Z,4.03
2018-04-23T11:07:32.663Z,3.60
2018-04-23T11:10:06.428Z,3.53
2018-04-23T11:12:40.977Z,3.43
2018-04-23T11:15:16.735Z,3.50
2018-04-23T11:17:53.216Z,3.53
2018-04-23T11:20:27.252Z,3.80
2018-04-23T11:23:02.211Z,3.67
2018-04-23T11:25:36.048Z,3.70
2018-04-23T11:28:09.575Z,3.60
2018-04-23T11:30:46.193Z,3.50
2018-04-23T11:33:21.668Z,3.43
2018-04-23T11:35:55.667Z,3.50
2018-04-23T11:38:31.585Z,3.33
2018-04-23T11:41:06.752Z,3.50
2018-04-23T11:43:41.038Z,3.93
2018-04-23T11:46:16.967Z,3.57
2018-04-23T11:48:51.031Z,3.30
2018-04-23T11:51:24.685Z,3.70
2018-04-23T11:53:58.323Z,3.23
2018-04-23T11:56:32.539Z,3.57
2018-04-23T11:59:06.757Z,3.40
2018-04-23T12:01:41.007Z,3.20
2018-04-23T12:04:15.079Z,3.63
2018-04-23T12:06:50.238Z,3.70
2018-04-23T12:09:25.067Z,3.50
2018-04-23T12:11:58.535Z,3.97
2018-04-23T12:14:32.357Z,3.60
2018-04-23T12:17:07.494Z,4.00
2018-04-23T12:19:41.249Z,3.70
2018-04-23T12:22:15.791Z,3.80
2018-04-23T12:24:52.074Z,4.30
2018-04-23T12:27:29.253Z,4.33
2018-04-23T12:30:10.643Z,4.07
2018-04-23T12:35:19.507Z,3.73
2018-04-23T12:38:03.117Z,3.70
2018-04-23T12:40:50.181Z,3.70
2018-04-23T12:43:30.686Z,3.77
2018-04-23T12:46:06.441Z,4.47
2018-04-23T12:48:41.457Z,3.87
2018-04-23T12:51:19.600Z,3.87
2018-04-23T12:53:58.417Z,4.13
2018-04-23T12:56:33.563Z,4.03
2018-04-23T12:59:07.361Z,4.60
2018-04-23T13:01:43.863Z,4.20
2018-04-23T13:04:17.941Z,4.00
2018-04-23T13:06:56.287Z,4.30
2018-04-23T13:09:32.745Z,3.97
2018-04-23T13:12:11.844Z,4.40
2018-04-23T13:14:50.360Z,3.90
2018-04-23T13:17:35.230Z,4.10
2018-04-23T13:20:11.797Z,3.70
2018-04-23T13:22:56.908Z,3.63
2018-04-23T13:25:33.663Z,3.83
2018-04-23T13:28:12.123Z,3.40
2018-04-23T13:30:50.437Z,3.57
2018-04-23T13:33:44.565Z,3.83
2018-04-23T13:36:25.750Z,4.27
2018-04-23T13:39:03.399Z,4.23
2018-04-23T13:41:42.467Z,4.30
2018-04-23T13:44:24.928Z,4.17
2018-04-23T13:47:02.137Z,4.73
2018-04-23T13:49:47.954Z,4.73
2018-04-23T13:52:27.103Z,4.20
2018-04-23T13:55:03.089Z,4.33
2018-04-23T13:57:39.732Z,4.43
2018-04-23T14:00:14.815Z,4.87
2018-04-23T14:02:51.580Z,4.90
2018-04-23T14:05:33.552Z,4.13
2018-04-23T14:10:54.689Z,4.40
2018-04-23T14:13:34.273Z,4.70
2018-04-23T14:16:09.309Z,4.00
2018-04-23T14:18:44.675Z,4.63
2018-04-23T14:21:23.421Z,4.87
2018-04-23T14:23:57.554Z,4.67
2018-04-23T14:26:33.412Z,4.50
2018-04-23T14:30:36.539Z,4.33
2018-04-23T14:33:14.046Z,4.67
2018-04-23T14:35:48.236Z,5.07
2018-04-23T14:38:23.444Z,4.10
2018-04-23T14:41:00.148Z,4.23
2018-04-23T14:43:35.490Z,4.60
2018-04-23T14:46:10.956Z,4.40
2018-04-23T14:48:46.080Z,5.00
2018-04-23T14:51:28.045Z,5.33
2018-04-23T14:54:06.145Z,5.73
2018-04-23T14:56:42.465Z,5.00
2018-04-23T14:59:17.868Z,4.87
2018-04-23T15:01:52.752Z,4.83
2018-04-23T15:04:28.514Z,4.63
2018-04-23T15:07:08.667Z,4.97
2018-04-23T15:09:44.294Z,4.37
2018-04-23T15:12:20.009Z,4.73
2018-04-23T15:14:55.695Z,4.73
2018-04-23T15:17:33.428Z,4.30
2018-04-23T15:20:07.820Z,5.00
2018-04-23T15:22:42.562Z,4.23
2018-04-23T15:25:18.761Z,4.13
2018-04-23T15:27:52.892Z,4.23
2018-04-23T15:30:33.250Z,4.07
2018-04-23T15:33:10.690Z,4.33
2018-04-23T15:35:44.904Z,4.03
2018-04-23T15:38:21.870Z,4.07
2018-04-23T15:40:56.139Z,4.73
2018-04-23T15:46:14.683Z,4.23
2018-04-23T15:48:53.218Z,4.00
2018-04-23T15:51:33.229Z,4.23
2018-04-23T15:54:07.095Z,3.70
2018-04-23T15:56:42.140Z,4.10
2018-04-23T15:59:16.388Z,4.07
2018-04-23T16:01:52.083Z,3.93
2018-04-23T16:04:25.810Z,4.70
2018-04-23T16:07:01.158Z,3.70
2018-04-23T16:09:35.549Z,4.37
2018-04-23T16:12:09.325Z,4.03
2018-04-23T16:14:49.574Z,3.70
2018-04-23T16:17:28.711Z,3.80
2018-04-23T16:20:08.113Z,4.30
2018-04-23T16:22:45.091Z,3.87
2018-04-23T16:25:24.617Z,4.40
2018-04-23T16:44:44.750Z,4.50
2018-04-23T16:47:21.824Z,3.50
2018-04-23T16:52:56.144Z,4.47
2018-04-23T16:55:49.489Z,5.13
2018-04-23T16:58:30.754Z,5.50
2018-04-23T17:01:10.145Z,5.27
2018-04-23T17:03:46.312Z,4.90
2018-04-23T17:06:28.255Z,5.27
2018-04-23T17:09:04.656Z,4.13
2018-04-23T17:11:39.296Z,4.83
2018-04-23T17:14:14.727Z,4.20
2018-04-23T17:16:54.888Z,4.30
2018-04-23T17:19:32.262Z,3.90
2018-04-23T17:22:07.421Z,4.53
2018-04-23T17:24:47.289Z,4.10
2018-04-23T17:27:25.382Z,4.60
2018-04-23T17:29:59.125Z,4.37
2018-04-23T17:32:36.032Z,4.13
2018-04-23T17:35:10.198Z,4.07
2018-04-23T17:37:48.852Z,4.13
2018-04-23T17:40:29.577Z,4.10
2018-04-23T17:43:07.480Z,4.60
2018-04-23T17:45:47.715Z,3.70
2018-04-23T17:48:23.337Z,4.00
2018-04-23T17:51:04.290Z,4.40
2018-04-23T17:53:39.280Z,4.43
2018-04-23T17:57:57.435Z,5.20
2018-04-23T18:00:33.337Z,5.03
2018-04-23T18:03:17.844Z,4.20
2018-04-23T18:05:52.989Z,4.53
2018-04-23T18:08:47.077Z,4.37
2018-04-23T18:11:27.708Z,4.53
2018-04-23T18:14:05.646Z,4.27
2018-04-23T18:16:52.707Z,4.20
2018-04-23T18:19:47.741Z,4.67
2018-04-23T18:22:31.683Z,4.30
2018-04-23T18:28:15.037Z,4.47
2018-04-23T18:30:55.940Z,3.90
2018-04-23T18:33:33.378Z,3.90
2018-04-23T18:36:11.784Z,4.37
2018-04-23T18:38:46.249Z,4.70
2018-04-23T18:41:21.134Z,4.20
2018-04-23T18:44:00.644Z,4.07
2018-04-23T18:46:40.423Z,4.10
2018-04-23T18:49:14.549Z,4.33
2018-04-23T18:51:52.692Z,4.10
2018-04-23T18:54:26.994Z,4.20
2018-04-23T18:57:03.026Z,3.83
2018-04-23T18:59:36.800Z,4.47
2018-04-23T19:02:10.783Z,4.50
2018-04-23T19:04:44.311Z,4.53
2018-04-23T19:07:21.823Z,5.33
2018-04-23T19:09:56.899Z,5.33
2018-04-23T19:12:30.142Z,5.43
2018-04-23T19:15:04.066Z,5.10
2018-04-23T19:17:37.665Z,5.63
2018-04-23T19:20:11.317Z,6.43
2018-04-23T19:22:45.290Z,6.77
2018-04-23T19:25:19.103Z,6.80
2018-04-23T19:27:52.337Z,7.37
2018-04-23T19:30:26.630Z,7.20
2018-04-23T19:33:00.353Z,7.27
2018-04-23T19:35:34.011Z,7.40
2018-04-23T19:38:07.606Z,7.77
2018-04-23T19:40:41.029Z,7.80
2018-04-23T19:43:16.925Z,8.60
2018-04-23T19:46:01.732Z,9.60
2018-04-23T19:48:36.491Z,9.20
2018-04-23T19:51:12.573Z,8.37
2018-04-23T19:53:45.949Z,9.70
2018-04-23T19:56:20.424Z,9.47
2018-04-23T19:58:54.165Z,9.37
2018-04-23T20:01:27.592Z,8.87
2018-04-23T20:04:01.573Z,9.20
2018-04-23T20:06:35.699Z,8.63
2018-04-23T20:09:09.133Z,8.20
2018-04-23T20:11:43.341Z,7.87
2018-04-23T20:14:17.959Z,8.60
2018-04-23T20:16:51.697Z,8.23
2018-04-23T20:19:25.336Z,8.77
2018-04-23T20:21:59.014Z,10.40
2018-04-23T20:24:32.433Z,10.77
2018-04-23T20:27:07.494Z,9.40
2018-04-23T20:29:41.156Z,8.40
2018-04-23T20:32:14.472Z,8.73
2018-04-23T20:34:50.181Z,9.57
2018-04-23T20:37:26.176Z,8.67
2018-04-23T20:40:01.226Z,9.60
2018-04-23T20:42:37.294Z,9.23
2018-04-23T20:45:11.153Z,9.37
2018-04-23T20:47:44.863Z,8.40
2018-04-23T20:50:18.474Z,9.17
2018-04-23T20:52:51.945Z,9.57
2018-04-23T20:55:25.659Z,9.47
2018-04-23T20:57:59.626Z,9.70
2018-04-23T21:00:33.027Z,8.77
2018-04-23T21:03:06.761Z,8.33
2018-04-23T21:05:40.458Z,9.03
2018-04-23T21:08:14.165Z,9.23
2018-04-23T21:10:47.761Z,9.20
2018-04-23T21:13:21.289Z,9.03
2018-04-23T21:15:54.589Z,8.93
2018-04-23T21:18:30.672Z,8.57
2018-04-23T21:21:04.493Z,8.70
2018-04-23T21:23:37.829Z,9.20
2018-04-23T21:26:11.599Z,9.37
2018-04-23T21:28:46.272Z,9.63
2018-04-23T21:31:20.041Z,8.93
2018-04-23T21:33:53.493Z,8.97
2018-04-23T21:36:27.193Z,8.63
2018-04-23T21:39:00.564Z,9.50
2018-04-23T21:41:34.168Z,8.33
2018-04-23T21:44:07.463Z,8.83
2018-04-23T21:46:40.929Z,9.50
2018-04-23T21:49:15.106Z,9.73
2018-04-23T21:51:49.777Z,9.57
2018-04-23T21:54:23.486Z,9.47
2018-04-23T21:56:56.994Z,8.80
2018-04-23T21:59:31.610Z,10.10
2018-04-23T22:02:05.143Z,10.77
2018-04-23T22:04:38.937Z,9.63
2018-04-23T22:07:12.457Z,9.70
2018-04-23T22:09:45.795Z,9.80
2018-04-23T22:12:19.223Z,9.27
2018-04-23T22:14:52.628Z,9.50
2018-04-23T22:17:26.096Z,9.63
2018-04-23T22:19:59.535Z,9.73
2018-04-23T22:22:32.824Z,10.13
2018-04-23T22:25:06.153Z,9.73
2018-04-23T22:27:40.907Z,10.20
2018-04-23T22:30:14.213Z,10.00
2018-04-23T22:32:47.710Z,9.47
2018-04-23T22:35:21.311Z,9.43
2018-04-23T22:37:54.561Z,9.53
2018-04-23T22:40:27.887Z,9.53
2018-04-23T22:43:01.436Z,10.53
2018-04-23T22:45:35.145Z,9.53
2018-04-23T22:48:08.528Z,9.60
2018-04-23T22:50:42.040Z,9.57
2018-04-23T22:53:15.631Z,10.27
2018-04-23T22:55:49.436Z,9.87
2018-04-23T22:58:22.937Z,9.57
2018-04-23T23:00:56.666Z,9.60
2018-04-23T23:03:30.220Z,10.47
2018-04-23T23:06:04.229Z,10.40
2018-04-23T23:08:37.514Z,10.77
2018-04-23T23:11:12.512Z,9.63
2018-04-23T23:13:45.933Z,9.77
2018-04-23T23:16:19.250Z,10.93
2018-04-23T23:18:52.605Z,10.57
2018-04-23T23:21:27.709Z,10.70
2018-04-23T23:24:02.849Z,10.23
2018-04-23T23:26:36.309Z,11.30
2018-04-23T23:29:09.663Z,10.30
2018-04-23T23:31:43.767Z,10.03
2018-04-23T23:34:17.181Z,9.77
2018-04-23T23:36:50.523Z,10.83
2018-04-23T23:39:23.985Z,10.53
2018-04-23T23:41:57.329Z,11.33
2018-04-23T23:44:30.661Z,11.50
2018-04-23T23:47:04.119Z,12.23
2018-04-23T23:49:37.488Z,12.30
2018-04-23T23:52:10.907Z,11.30
2018-04-23T23:54:44.188Z,12.07
2018-04-23T23:57:17.621Z,12.00
2018-04-23T23:59:51.158Z,12.33
